createdAt,value
2022-10-25T00:00:46.809Z,1006.56
2022-10-25T00:01:47.026Z,1006.55
2022-10-25T00:02:46.904Z,1006.57
2022-10-25T00:03:46.831Z,1006.58
2022-10-25T00:04:46.841Z,1006.58
2022-10-25T00:05:46.851Z,1006.57
2022-10-25T00:06:46.860Z,1006.59
2022-10-25T00:07:47.168Z,1006.59
2022-10-25T00:08:46.873Z,1006.58
2022-10-25T00:09:46.881Z,1006.61
2022-10-25T00:10:46.880Z,1006.60
2022-10-25T00:11:46.915Z,1006.57
2022-10-25T00:12:46.901Z,1006.52
2022-10-25T00:13:46.910Z,1006.52
2022-10-25T00:14:46.915Z,1006.54
2022-10-25T00:15:46.924Z,1006.57
2022-10-25T00:16:46.931Z,1006.57
2022-10-25T00:17:47.263Z,1006.56
2022-10-25T00:18:46.946Z,1006.56
2022-10-25T00:19:46.951Z,1006.65
2022-10-25T00:20:46.961Z,1006.63
2022-10-25T00:21:46.960Z,1006.63
2022-10-25T00:22:47.250Z,1006.67
2022-10-25T00:23:46.981Z,1006.65
2022-10-25T00:24:46.986Z,1006.66
2022-10-25T00:25:47.002Z,1006.70
2022-10-25T00:26:46.995Z,1006.67
2022-10-25T00:27:47.031Z,1006.64
2022-10-25T00:28:47.010Z,1006.68
2022-10-25T00:29:47.016Z,1006.67
2022-10-25T00:30:47.026Z,1006.65
2022-10-25T00:31:47.030Z,1006.63
2022-10-25T00:32:47.267Z,1006.66
2022-10-25T00:33:47.044Z,1006.61
2022-10-25T00:34:47.054Z,1006.56
2022-10-25T00:35:47.066Z,1006.63
2022-10-25T00:36:47.064Z,1006.65
2022-10-25T00:37:47.082Z,1006.63
2022-10-25T00:38:47.086Z,1006.64
2022-10-25T00:39:47.087Z,1006.61
2022-10-25T00:40:47.095Z,1006.59
2022-10-25T00:41:47.102Z,1006.69
2022-10-25T00:42:47.332Z,1006.65
2022-10-25T00:43:47.144Z,1006.63
2022-10-25T00:44:47.129Z,1006.68
2022-10-25T00:45:47.138Z,1006.66
2022-10-25T00:46:47.136Z,1006.69
2022-10-25T00:47:47.362Z,1006.70
2022-10-25T00:48:47.149Z,1006.69
2022-10-25T00:49:47.165Z,1006.75
2022-10-25T00:50:47.195Z,1006.73
2022-10-25T00:51:47.172Z,1006.78
2022-10-25T00:52:47.188Z,1006.74
2022-10-25T00:53:47.192Z,1006.71
2022-10-25T00:54:47.202Z,1006.76
2022-10-25T00:55:47.206Z,1006.74
2022-10-25T00:56:47.206Z,1006.77
2022-10-25T00:57:47.711Z,1006.80
2022-10-25T00:58:47.221Z,1006.83
2022-10-25T00:59:47.250Z,1006.79
2022-10-25T01:00:47.235Z,1006.89
2022-10-25T01:01:47.382Z,1006.83
2022-10-25T01:02:47.347Z,1006.82
2022-10-25T01:03:47.262Z,1006.82
2022-10-25T01:04:47.264Z,1006.81
2022-10-25T01:05:47.277Z,1006.83
2022-10-25T01:06:47.284Z,1006.83
2022-10-25T01:07:47.557Z,1006.81
2022-10-25T01:08:47.291Z,1006.77
2022-10-25T01:09:47.304Z,1006.80
2022-10-25T01:10:47.303Z,1006.75
2022-10-25T01:11:47.313Z,1006.82
2022-10-25T01:12:49.925Z,1006.79
2022-10-25T01:13:47.326Z,1006.81
2022-10-25T01:14:47.331Z,1006.78
2022-10-25T01:15:47.369Z,1006.81
2022-10-25T01:16:47.352Z,1006.76
2022-10-25T01:17:47.360Z,1006.80
2022-10-25T01:18:47.367Z,1006.77
2022-10-25T01:19:47.367Z,1006.79
2022-10-25T01:20:47.372Z,1006.79
2022-10-25T01:21:47.383Z,1006.77
2022-10-25T01:22:47.634Z,1006.74
2022-10-25T01:23:47.416Z,1006.78
2022-10-25T01:24:47.408Z,1006.80
2022-10-25T01:25:47.418Z,1006.78
2022-10-25T01:26:47.422Z,1006.78
2022-10-25T01:27:47.431Z,1006.72
2022-10-25T01:28:47.430Z,1006.74
2022-10-25T01:29:47.443Z,1006.75
2022-10-25T01:30:47.443Z,1006.76
2022-10-25T01:31:47.477Z,1006.77
2022-10-25T01:32:47.695Z,1006.72
2022-10-25T01:33:47.470Z,1006.71
2022-10-25T01:34:47.470Z,1006.78
2022-10-25T01:35:47.484Z,1006.75
2022-10-25T01:36:47.484Z,1006.76
2022-10-25T01:37:47.934Z,1006.77
2022-10-25T01:38:47.499Z,1006.74
2022-10-25T01:39:47.503Z,1006.74
2022-10-25T01:40:47.520Z,1006.73
2022-10-25T01:41:47.524Z,1006.72
2022-10-25T01:42:47.526Z,1006.70
2022-10-25T01:43:47.540Z,1006.73
2022-10-25T01:44:47.537Z,1006.71
2022-10-25T01:45:47.546Z,1006.75
2022-10-25T01:46:47.551Z,1006.73
2022-10-25T01:47:47.905Z,1006.78
2022-10-25T01:48:47.564Z,1006.77
2022-10-25T01:49:47.580Z,1006.78
2022-10-25T01:50:47.585Z,1006.78
2022-10-25T01:51:47.593Z,1006.78
2022-10-25T01:52:47.632Z,1006.76
2022-10-25T01:53:47.601Z,1006.82
2022-10-25T01:54:47.605Z,1006.86
2022-10-25T01:55:47.614Z,1006.85
2022-10-25T01:56:47.620Z,1006.83
2022-10-25T01:57:47.974Z,1006.82
2022-10-25T01:58:47.632Z,1006.83
2022-10-25T01:59:47.648Z,1006.89
2022-10-25T02:00:47.704Z,1006.87
2022-10-25T02:01:47.657Z,1006.83
2022-10-25T02:02:47.969Z,1006.83
2022-10-25T02:03:47.694Z,1006.82
2022-10-25T02:04:47.681Z,1006.85
2022-10-25T02:05:47.682Z,1006.79
2022-10-25T02:06:47.696Z,1006.81
2022-10-25T02:07:47.703Z,1006.84
2022-10-25T02:08:47.707Z,1006.86
2022-10-25T02:09:47.717Z,1006.82
2022-10-25T02:10:47.714Z,1006.81
2022-10-25T02:11:47.722Z,1006.82
2022-10-25T02:12:48.007Z,1006.80
2022-10-25T02:13:47.745Z,1006.81
2022-10-25T02:14:47.742Z,1006.80
2022-10-25T02:15:47.753Z,1006.82
2022-10-25T02:16:47.762Z,1006.77
2022-10-25T02:17:47.764Z,1006.81
2022-10-25T02:18:47.777Z,1006.80
2022-10-25T02:19:47.804Z,1006.86
2022-10-25T02:20:47.787Z,1006.78
2022-10-25T02:21:47.791Z,1006.80
2022-10-25T02:22:48.105Z,1006.83
2022-10-25T02:23:47.802Z,1006.81
2022-10-25T02:24:47.810Z,1006.84
2022-10-25T02:25:47.823Z,1006.82
2022-10-25T02:27:48.204Z,1006.84
2022-10-25T02:28:47.854Z,1006.87
2022-10-25T02:29:47.860Z,1006.90
2022-10-25T02:30:47.862Z,1006.90
2022-10-25T02:31:47.854Z,1006.86
2022-10-25T02:32:47.873Z,1006.90
2022-10-25T02:33:47.870Z,1006.89
2022-10-25T02:34:47.879Z,1006.89
2022-10-25T02:35:47.910Z,1006.83
2022-10-25T02:36:47.896Z,1006.86
2022-10-25T02:37:48.212Z,1006.89
2022-10-25T02:38:47.913Z,1006.88
2022-10-25T02:39:47.918Z,1006.89
2022-10-25T02:40:47.916Z,1006.89
2022-10-25T02:41:47.930Z,1006.94
2022-10-25T02:42:47.931Z,1006.89
2022-10-25T02:43:47.943Z,1006.93
2022-10-25T02:44:47.949Z,1006.94
2022-10-25T02:45:47.958Z,1006.95
2022-10-25T02:46:47.963Z,1006.94
2022-10-25T02:47:48.274Z,1006.95
2022-10-25T02:48:47.976Z,1007.03
2022-10-25T02:49:47.978Z,1007.01
2022-10-25T02:50:47.999Z,1007.05
2022-10-25T02:51:48.038Z,1007.04
2022-10-25T02:52:48.282Z,1007.02
2022-10-25T02:53:48.003Z,1007.00
2022-10-25T02:54:48.011Z,1007.03
2022-10-25T02:55:48.025Z,1007.04
2022-10-25T02:56:48.023Z,1007.10
2022-10-25T02:57:48.027Z,1007.14
2022-10-25T02:58:48.048Z,1007.16
2022-10-25T02:59:48.048Z,1007.15
2022-10-25T03:00:48.119Z,1007.14
2022-10-25T03:01:48.091Z,1007.15
2022-10-25T03:02:48.586Z,1007.16
2022-10-25T03:03:48.075Z,1007.17
2022-10-25T03:04:48.076Z,1007.19
2022-10-25T03:05:48.082Z,1007.20
2022-10-25T03:06:48.090Z,1007.25
2022-10-25T03:07:48.123Z,1007.21
2022-10-25T03:08:48.106Z,1007.21
2022-10-25T03:09:48.116Z,1007.19
2022-10-25T03:10:48.120Z,1007.21
2022-10-25T03:11:48.130Z,1007.18
2022-10-25T03:12:48.498Z,1007.19
2022-10-25T03:13:48.137Z,1007.23
2022-10-25T03:14:48.149Z,1007.21
2022-10-25T03:15:48.150Z,1007.22
2022-10-25T03:17:48.378Z,1007.31
2022-10-25T03:18:48.177Z,1007.28
2022-10-25T03:19:48.184Z,1007.30
2022-10-25T03:20:48.189Z,1007.29
2022-10-25T03:21:48.191Z,1007.23
2022-10-25T03:22:48.196Z,1007.24
2022-10-25T03:23:48.224Z,1007.20
2022-10-25T03:24:48.217Z,1007.22
2022-10-25T03:25:49.767Z,1007.19
2022-10-25T03:26:48.232Z,1007.20
2022-10-25T03:27:48.573Z,1007.21
2022-10-25T03:28:48.244Z,1007.17
2022-10-25T03:29:48.251Z,1007.23
2022-10-25T03:30:48.261Z,1007.18
2022-10-25T03:31:48.255Z,1007.16
2022-10-25T03:32:48.271Z,1007.21
2022-10-25T03:33:48.270Z,1007.22
2022-10-25T03:34:48.278Z,1007.23
2022-10-25T03:35:48.289Z,1007.25
2022-10-25T03:36:48.289Z,1007.25
2022-10-25T03:37:48.673Z,1007.27
2022-10-25T03:38:48.309Z,1007.33
2022-10-25T03:39:48.335Z,1007.26
2022-10-25T03:40:48.318Z,1007.28
2022-10-25T03:41:48.321Z,1007.24
2022-10-25T03:42:48.337Z,1007.28
2022-10-25T03:43:48.332Z,1007.28
2022-10-25T03:44:48.343Z,1007.28
2022-10-25T03:45:48.357Z,1007.31
2022-10-25T03:46:48.360Z,1007.33
2022-10-25T03:47:48.731Z,1007.34
2022-10-25T03:48:48.364Z,1007.34
2022-10-25T03:49:48.373Z,1007.37
2022-10-25T03:50:48.378Z,1007.36
2022-10-25T03:51:51.139Z,1007.41
2022-10-25T03:52:48.397Z,1007.41
2022-10-25T03:53:48.398Z,1007.41
2022-10-25T03:54:48.405Z,1007.40
2022-10-25T03:55:48.436Z,1007.37
2022-10-25T03:56:48.417Z,1007.39
2022-10-25T03:57:48.856Z,1007.44
2022-10-25T03:58:48.436Z,1007.44
2022-10-25T03:59:48.444Z,1007.44
2022-10-25T04:00:48.506Z,1007.45
2022-10-25T04:01:48.514Z,1007.44
2022-10-25T04:02:48.536Z,1007.47
2022-10-25T04:03:48.471Z,1007.51
2022-10-25T04:04:48.476Z,1007.47
2022-10-25T04:05:48.481Z,1007.46
2022-10-25T04:06:48.489Z,1007.47
2022-10-25T04:07:49.092Z,1007.49
2022-10-25T04:08:48.493Z,1007.54
2022-10-25T04:09:48.500Z,1007.51
2022-10-25T04:10:48.508Z,1007.50
2022-10-25T04:11:48.539Z,1007.51
2022-10-25T04:12:48.611Z,1007.52
2022-10-25T04:13:48.530Z,1007.54
2022-10-25T04:14:48.533Z,1007.51
2022-10-25T04:15:48.535Z,1007.54
2022-10-25T04:16:48.550Z,1007.46
2022-10-25T04:17:48.882Z,1007.51
2022-10-25T04:18:48.562Z,1007.51
2022-10-25T04:19:48.570Z,1007.51
2022-10-25T04:20:48.567Z,1007.49
2022-10-25T04:21:48.583Z,1007.47
2022-10-25T04:22:48.588Z,1007.47
2022-10-25T04:23:48.586Z,1007.46
2022-10-25T04:24:48.599Z,1007.46
2022-10-25T04:25:48.606Z,1007.51
2022-10-25T04:26:48.617Z,1007.50
2022-10-25T04:27:49.042Z,1007.49
2022-10-25T04:28:48.624Z,1007.51
2022-10-25T04:29:48.633Z,1007.51
2022-10-25T04:30:48.630Z,1007.57
2022-10-25T04:31:48.643Z,1007.56
2022-10-25T04:32:49.226Z,1007.59
2022-10-25T04:33:49.028Z,1007.60
2022-10-25T04:34:48.656Z,1007.65
2022-10-25T04:35:48.670Z,1007.67
2022-10-25T04:36:48.667Z,1007.68
2022-10-25T04:37:48.680Z,1007.66
2022-10-25T04:38:48.681Z,1007.71
2022-10-25T04:39:48.685Z,1007.68
2022-10-25T04:40:48.702Z,1007.72
2022-10-25T04:41:48.705Z,1007.73
2022-10-25T04:42:48.967Z,1007.76
2022-10-25T04:43:48.741Z,1007.78
2022-10-25T04:44:48.726Z,1007.83
2022-10-25T04:45:48.723Z,1007.82
2022-10-25T04:46:49.118Z,1007.77
2022-10-25T04:47:48.744Z,1007.81
2022-10-25T04:48:48.743Z,1007.76
2022-10-25T04:49:48.755Z,1007.71
2022-10-25T04:50:48.764Z,1007.68
2022-10-25T04:51:48.796Z,1007.72
2022-10-25T04:52:49.128Z,1007.71
2022-10-25T04:53:48.780Z,1007.70
2022-10-25T04:54:48.787Z,1007.70
2022-10-25T04:55:48.794Z,1007.75
2022-10-25T04:56:48.800Z,1007.74
2022-10-25T04:57:48.806Z,1007.71
2022-10-25T04:58:48.804Z,1007.74
2022-10-25T04:59:48.832Z,1007.81
2022-10-25T05:00:48.816Z,1007.77
2022-10-25T05:01:48.934Z,1007.74
2022-10-25T05:02:49.294Z,1007.74
2022-10-25T05:03:48.842Z,1007.77
2022-10-25T05:04:48.839Z,1007.80
2022-10-25T05:05:48.856Z,1007.78
2022-10-25T05:06:48.859Z,1007.79
2022-10-25T05:07:48.867Z,1007.80
2022-10-25T05:08:48.864Z,1007.82
2022-10-25T05:09:48.873Z,1007.80
2022-10-25T05:10:48.878Z,1007.84
2022-10-25T05:11:48.891Z,1007.86
2022-10-25T05:12:49.252Z,1007.81
2022-10-25T05:13:48.895Z,1007.83
2022-10-25T05:14:48.903Z,1007.82
2022-10-25T05:15:48.941Z,1007.85
2022-10-25T05:16:48.913Z,1007.87
2022-10-25T05:17:48.926Z,1007.90
2022-10-25T05:18:48.928Z,1007.92
2022-10-25T05:19:48.941Z,1007.92
2022-10-25T05:20:48.947Z,1007.93
2022-10-25T05:21:48.946Z,1007.93
2022-10-25T05:22:49.369Z,1007.97
2022-10-25T05:23:48.966Z,1007.97
2022-10-25T05:24:48.976Z,1008.00
2022-10-25T05:25:48.970Z,1007.98
2022-10-25T05:26:48.977Z,1007.97
2022-10-25T05:27:48.982Z,1008.01
2022-10-25T05:28:48.989Z,1008.02
2022-10-25T05:29:49.004Z,1007.99
2022-10-25T05:30:49.008Z,1008.03
2022-10-25T05:31:49.029Z,1008.01
2022-10-25T05:32:49.376Z,1008.06
2022-10-25T05:33:49.021Z,1008.07
2022-10-25T05:34:49.026Z,1008.07
2022-10-25T05:35:49.035Z,1008.07
2022-10-25T05:36:49.045Z,1008.13
2022-10-25T05:37:49.053Z,1008.07
2022-10-25T05:38:49.061Z,1008.07
2022-10-25T05:39:49.065Z,1008.14
2022-10-25T05:40:49.148Z,1008.15
2022-10-25T05:41:49.077Z,1008.15
2022-10-25T05:42:49.388Z,1008.15
2022-10-25T05:43:49.090Z,1008.13
2022-10-25T05:44:49.089Z,1008.12
2022-10-25T05:45:49.101Z,1008.12
2022-10-25T05:46:49.102Z,1008.05
2022-10-25T05:47:49.137Z,1008.05
2022-10-25T05:48:49.381Z,1008.09
2022-10-25T05:49:49.120Z,1008.10
2022-10-25T05:50:49.136Z,1008.11
2022-10-25T05:51:49.139Z,1008.09
2022-10-25T05:52:49.523Z,1008.10
2022-10-25T05:53:49.153Z,1008.11
2022-10-25T05:54:49.149Z,1008.12
2022-10-25T05:55:49.157Z,1008.15
2022-10-25T05:56:49.161Z,1008.16
2022-10-25T05:57:49.177Z,1008.18
2022-10-25T05:58:49.174Z,1008.20
2022-10-25T05:59:49.189Z,1008.24
2022-10-25T06:00:49.208Z,1008.23
2022-10-25T06:01:49.370Z,1008.25
2022-10-25T06:02:49.491Z,1008.33
2022-10-25T06:03:49.226Z,1008.33
2022-10-25T06:04:52.319Z,1008.31
2022-10-25T06:05:49.217Z,1008.35
2022-10-25T06:06:49.233Z,1008.39
2022-10-25T06:07:49.230Z,1008.39
2022-10-25T06:08:49.238Z,1008.40
2022-10-25T06:09:49.242Z,1008.40
2022-10-25T06:10:49.253Z,1008.45
2022-10-25T06:11:49.255Z,1008.42
2022-10-25T06:12:49.610Z,1008.45
2022-10-25T06:13:49.273Z,1008.44
2022-10-25T06:14:49.282Z,1008.43
2022-10-25T06:15:49.279Z,1008.47
2022-10-25T06:16:49.292Z,1008.45
2022-10-25T06:17:49.300Z,1008.48
2022-10-25T06:18:49.304Z,1008.48
2022-10-25T06:19:49.332Z,1008.50
2022-10-25T06:20:49.313Z,1008.51
2022-10-25T06:21:49.315Z,1008.58
2022-10-25T06:22:49.659Z,1008.54
2022-10-25T06:23:49.336Z,1008.57
2022-10-25T06:24:49.337Z,1008.60
2022-10-25T06:25:49.348Z,1008.60
2022-10-25T06:26:49.351Z,1008.65
2022-10-25T06:27:49.352Z,1008.63
2022-10-25T06:28:49.373Z,1008.71
2022-10-25T06:29:49.372Z,1008.70
2022-10-25T06:30:49.374Z,1008.75
2022-10-25T06:31:49.377Z,1008.74
2022-10-25T06:32:49.697Z,1008.78
2022-10-25T06:33:49.406Z,1008.78
2022-10-25T06:34:49.398Z,1008.80
2022-10-25T06:35:49.431Z,1008.77
2022-10-25T06:36:49.410Z,1008.82
2022-10-25T06:37:49.415Z,1008.81
2022-10-25T06:38:49.432Z,1008.85
2022-10-25T06:39:49.436Z,1008.79
2022-10-25T06:40:49.440Z,1008.85
2022-10-25T06:41:49.443Z,1008.84
2022-10-25T06:42:49.496Z,1008.83
2022-10-25T06:43:49.461Z,1008.85
2022-10-25T06:44:49.460Z,1008.86
2022-10-25T06:45:49.475Z,1008.87
2022-10-25T06:47:16.820Z,1008.86
2022-10-25T06:47:49.480Z,1008.90
2022-10-25T06:48:49.493Z,1008.93
2022-10-25T06:49:49.501Z,1008.92
2022-10-25T06:50:52.102Z,1008.91
2022-10-25T06:51:49.535Z,1008.92
2022-10-25T06:52:49.718Z,1008.92
2022-10-25T06:53:49.528Z,1008.92
2022-10-25T06:54:49.533Z,1008.95
2022-10-25T06:55:49.539Z,1008.96
2022-10-25T06:56:49.541Z,1008.99
2022-10-25T06:57:49.552Z,1008.98
2022-10-25T06:58:49.553Z,1008.98
2022-10-25T06:59:49.617Z,1009.01
2022-10-25T07:00:49.808Z,1009.03
2022-10-25T07:01:49.672Z,1009.07
2022-10-25T07:02:49.735Z,1009.07
2022-10-25T07:03:49.584Z,1009.08
2022-10-25T07:04:49.599Z,1009.07
2022-10-25T07:05:49.606Z,1009.12
2022-10-25T07:06:52.792Z,1009.16
2022-10-25T07:07:49.702Z,1009.13
2022-10-25T07:08:49.627Z,1009.16
2022-10-25T07:09:49.631Z,1009.14
2022-10-25T07:10:49.641Z,1009.16
2022-10-25T07:11:49.646Z,1009.15
2022-10-25T07:12:49.646Z,1009.18
2022-10-25T07:13:49.653Z,1009.15
2022-10-25T07:14:49.667Z,1009.18
2022-10-25T07:15:49.666Z,1009.17
2022-10-25T07:16:49.680Z,1009.17
2022-10-25T07:17:49.864Z,1009.24
2022-10-25T07:18:49.688Z,1009.24
2022-10-25T07:19:49.702Z,1009.19
2022-10-25T07:20:49.703Z,1009.17
2022-10-25T07:21:49.716Z,1009.23
2022-10-25T07:22:49.722Z,1009.20
2022-10-25T07:23:49.743Z,1009.18
2022-10-25T07:24:49.738Z,1009.18
2022-10-25T07:25:49.738Z,1009.17
2022-10-25T07:26:49.745Z,1009.15
2022-10-25T07:27:50.141Z,1009.18
2022-10-25T07:28:49.766Z,1009.20
2022-10-25T07:29:49.775Z,1009.16
2022-10-25T07:30:49.777Z,1009.17
2022-10-25T07:31:49.790Z,1009.11
2022-10-25T07:32:49.793Z,1009.09
2022-10-25T07:33:49.808Z,1009.13
2022-10-25T07:34:49.869Z,1009.09
2022-10-25T07:36:05.876Z,1009.17
2022-10-25T07:36:49.824Z,1009.21
2022-10-25T07:37:50.067Z,1009.24
2022-10-25T07:38:49.848Z,1009.23
2022-10-25T07:39:49.877Z,1009.28
2022-10-25T07:40:49.864Z,1009.26
2022-10-25T07:41:49.865Z,1009.27
2022-10-25T07:42:49.881Z,1009.29
2022-10-25T07:43:49.880Z,1009.20
2022-10-25T07:47:15.748Z,1009.20
2022-10-25T07:48:15.764Z,1009.24
2022-10-25T07:49:15.771Z,1009.22
2022-10-25T07:50:15.773Z,1009.19
2022-10-25T07:51:15.787Z,1009.17
2022-10-25T07:52:15.790Z,1009.18
2022-10-25T07:53:15.808Z,1009.16
2022-10-25T07:54:15.817Z,1009.17
2022-10-25T07:55:15.840Z,1009.15
2022-10-25T07:56:18.874Z,1009.14
2022-10-25T07:57:15.837Z,1009.12
2022-10-25T07:58:15.852Z,1009.14
2022-10-25T07:59:15.853Z,1009.16
2022-10-25T08:00:15.862Z,1009.10
2022-10-25T08:01:15.950Z,1009.08
2022-10-25T08:02:15.883Z,1009.05
2022-10-25T08:03:15.976Z,1009.07
2022-10-25T08:04:15.900Z,1009.08
2022-10-25T08:05:15.920Z,1009.09
2022-10-25T08:06:15.925Z,1009.05
2022-10-25T08:07:15.936Z,1009.03
2022-10-25T08:08:15.935Z,1009.03
2022-10-25T08:09:36.887Z,1009.08
2022-10-25T08:10:15.953Z,1009.05
2022-10-25T08:11:15.993Z,1009.05
2022-10-25T08:12:19.107Z,1009.03
2022-10-25T08:13:15.991Z,1009.06
2022-10-25T08:14:16.037Z,1009.02
2022-10-25T08:15:16.004Z,1009.04
2022-10-25T08:16:16.012Z,1009.02
2022-10-25T08:17:16.030Z,1009.07
2022-10-25T08:18:16.031Z,1009.01
2022-10-25T08:19:16.043Z,1009.03
2022-10-25T08:20:16.059Z,1008.97
2022-10-25T08:21:16.068Z,1008.98
2022-10-25T08:22:16.071Z,1009.01
2022-10-25T08:23:16.103Z,1008.98
2022-10-25T08:24:16.187Z,1009.00
2022-10-25T08:25:16.107Z,1008.99
2022-10-25T08:26:16.118Z,1008.96
2022-10-25T08:27:16.143Z,1009.01
2022-10-25T08:28:16.138Z,1008.99
2022-10-25T08:29:16.143Z,1009.00
2022-10-25T08:30:16.158Z,1008.99
2022-10-25T08:31:16.201Z,1008.99
2022-10-25T08:32:16.170Z,1009.01
2022-10-25T08:33:16.187Z,1009.02
2022-10-25T08:34:16.192Z,1009.05
2022-10-25T08:35:16.205Z,1009.10
2022-10-25T08:36:16.209Z,1009.13
2022-10-25T08:37:16.218Z,1009.15
2022-10-25T08:38:16.232Z,1009.15
2022-10-25T08:39:16.243Z,1009.13
2022-10-25T08:40:16.252Z,1009.13
2022-10-25T08:41:16.262Z,1009.18
2022-10-25T08:42:16.263Z,1009.21
2022-10-25T08:43:16.294Z,1009.20
2022-10-25T08:44:16.290Z,1009.23
2022-10-25T08:45:16.294Z,1009.26
2022-10-25T08:46:16.299Z,1009.25
2022-10-25T08:47:16.323Z,1009.26
2022-10-25T08:48:16.326Z,1009.24
2022-10-25T08:49:16.334Z,1009.26
2022-10-25T08:50:16.336Z,1009.25
2022-10-25T08:51:16.353Z,1009.30
2022-10-25T08:52:17.474Z,1009.31
2022-10-25T08:53:16.363Z,1009.30
2022-10-25T08:54:16.368Z,1009.29
2022-10-25T08:55:16.389Z,1009.30
2022-10-25T08:56:17.436Z,1009.27
2022-10-25T08:57:16.776Z,1009.33
2022-10-25T08:58:16.415Z,1009.32
2022-10-25T08:59:16.439Z,1009.36
2022-10-25T09:00:16.429Z,1009.36
2022-10-25T09:01:16.532Z,1009.40
2022-10-25T09:02:16.540Z,1009.39
2022-10-25T09:03:16.446Z,1009.39
2022-10-25T09:04:16.468Z,1009.39
2022-10-25T09:05:16.469Z,1009.37
2022-10-25T09:06:16.472Z,1009.39
2022-10-25T09:07:16.479Z,1009.42
2022-10-25T09:08:16.496Z,1009.42
2022-10-25T09:09:16.496Z,1009.46
2022-10-25T09:10:16.513Z,1009.48
2022-10-25T09:11:16.511Z,1009.55
2022-10-25T09:12:16.530Z,1009.49
2022-10-25T09:13:16.533Z,1009.51
2022-10-25T09:14:16.546Z,1009.57
2022-10-25T09:15:16.573Z,1009.55
2022-10-25T09:16:16.570Z,1009.58
2022-10-25T09:17:16.561Z,1009.53
2022-10-25T09:18:16.585Z,1009.56
2022-10-25T09:19:16.585Z,1009.58
2022-10-25T09:20:16.588Z,1009.60
2022-10-25T09:21:22.161Z,1009.60
2022-10-25T09:22:16.603Z,1009.61
2022-10-25T09:23:16.665Z,1009.59
2022-10-25T09:24:16.620Z,1009.65
2022-10-25T09:25:16.629Z,1009.68
2022-10-25T09:26:16.636Z,1009.69
2022-10-25T09:27:16.643Z,1009.69
2022-10-25T09:28:16.655Z,1009.75
2022-10-25T09:29:16.660Z,1009.77
2022-10-25T09:30:16.668Z,1009.73
2022-10-25T09:31:16.706Z,1009.78
2022-10-25T09:32:16.684Z,1009.77
2022-10-25T09:34:16.707Z,1009.78
2022-10-25T09:35:16.710Z,1009.77
2022-10-25T09:36:16.716Z,1009.75
2022-10-25T09:37:16.728Z,1009.84
2022-10-25T09:38:16.740Z,1009.87
2022-10-25T09:39:16.749Z,1009.85
2022-10-25T09:40:16.803Z,1009.83
2022-10-25T09:41:16.768Z,1009.83
2022-10-25T09:42:16.787Z,1009.93
2022-10-25T09:43:16.782Z,1009.91
2022-10-25T09:44:16.791Z,1009.90
2022-10-25T09:45:16.790Z,1009.90
2022-10-25T09:46:16.799Z,1009.92
2022-10-25T09:47:16.831Z,1009.98
2022-10-25T09:48:16.817Z,1009.96
2022-10-25T09:49:16.832Z,1009.98
2022-10-25T09:50:16.920Z,1010.02
2022-10-25T09:51:16.849Z,1010.03
2022-10-25T09:52:16.855Z,1010.06
2022-10-25T09:53:19.047Z,1010.05
2022-10-25T09:54:16.872Z,1010.08
2022-10-25T09:55:16.877Z,1010.09
2022-10-25T09:56:16.884Z,1010.09
2022-10-25T09:57:16.899Z,1010.05
2022-10-25T09:58:16.909Z,1010.07
2022-10-25T09:59:16.909Z,1010.15
2022-10-25T10:00:16.920Z,1010.05
2022-10-25T10:01:17.129Z,1009.99
2022-10-25T10:02:17.171Z,1010.03
2022-10-25T10:03:16.977Z,1010.02
2022-10-25T10:04:16.962Z,1010.02
2022-10-25T10:05:16.988Z,1009.99
2022-10-25T10:06:16.974Z,1010.06
2022-10-25T10:07:16.990Z,1010.00
2022-10-25T10:08:16.993Z,1010.03
2022-10-25T10:10:09.570Z,1009.99
2022-10-25T10:11:09.585Z,1010.02
2022-10-25T10:12:09.596Z,1010.01
2022-10-25T10:13:09.607Z,1010.04
2022-10-25T10:14:10.190Z,1010.00
2022-10-25T10:15:09.622Z,1010.01
2022-10-25T10:16:09.635Z,1010.04
2022-10-25T10:17:09.650Z,1010.03
2022-10-25T10:18:09.662Z,1010.03
2022-10-25T10:19:09.694Z,1009.98
2022-10-25T10:20:09.677Z,1010.00
2022-10-25T10:27:38.478Z,1009.90
2022-10-25T10:29:20.229Z,1009.83
2022-10-25T10:30:20.240Z,1009.81
2022-10-25T10:31:21.670Z,1009.82
2022-10-25T10:32:20.273Z,1009.74
2022-10-25T10:35:46.178Z,1009.78
2022-10-25T10:37:46.475Z,1009.82
2022-10-25T10:38:48.812Z,1009.83
2022-10-25T11:06:18.574Z,1009.78
2022-10-25T11:07:18.557Z,1009.81
2022-10-25T11:08:18.574Z,1009.81
2022-10-25T11:09:18.578Z,1009.77
2022-10-25T11:10:18.600Z,1009.77
2022-10-25T11:11:18.610Z,1009.72
2022-10-25T11:12:18.616Z,1009.73
2022-10-25T11:13:18.638Z,1009.68
2022-10-25T11:14:18.650Z,1009.69
2022-10-25T11:15:18.663Z,1009.62
2022-10-25T11:16:18.675Z,1009.67
2022-10-25T11:17:18.690Z,1009.69
2022-10-25T13:10:51.757Z,1009.95
2022-10-25T13:11:52.841Z,1009.94
2022-10-25T13:29:04.244Z,1010.02
2022-10-25T13:30:04.364Z,1010.07
2022-10-25T13:31:04.159Z,1010.10
2022-10-25T13:32:07.496Z,1010.09
2022-10-25T13:33:04.181Z,1010.08
2022-10-25T13:34:04.194Z,1010.09
2022-10-25T13:35:04.214Z,1010.19
2022-10-25T13:36:04.233Z,1010.16
2022-10-25T13:37:04.262Z,1010.17
2022-10-25T13:38:04.276Z,1010.17
2022-10-25T13:39:04.265Z,1010.25
2022-10-25T13:40:04.419Z,1010.11
2022-10-25T13:41:04.286Z,1010.13
2022-10-25T13:42:04.294Z,1010.13
2022-10-25T13:43:04.318Z,1010.13
2022-10-25T13:44:04.326Z,1010.12
2022-10-25T13:45:04.460Z,1010.11
2022-10-25T13:46:04.351Z,1010.09
2022-10-25T13:47:04.363Z,1010.12
2022-10-25T13:48:04.368Z,1010.12
2022-10-25T13:49:04.387Z,1010.10
2022-10-25T13:50:04.540Z,1010.07
2022-10-25T13:51:04.404Z,1010.10
2022-10-25T13:52:04.422Z,1010.16
2022-10-25T13:53:04.427Z,1010.12
2022-10-25T13:54:07.163Z,1010.10
2022-10-25T13:55:04.461Z,1010.12
2022-10-25T13:56:04.467Z,1010.18
2022-10-25T13:57:04.482Z,1010.14
2022-10-25T13:58:04.486Z,1010.17
2022-10-25T13:59:04.505Z,1010.15
2022-10-25T14:00:04.633Z,1010.17
2022-10-25T14:01:04.880Z,1010.18
2022-10-25T14:02:04.698Z,1010.17
2022-10-25T14:03:04.545Z,1010.20
2022-10-25T14:04:04.554Z,1010.21
2022-10-25T14:05:04.582Z,1010.20
2022-10-25T14:06:04.588Z,1010.23
2022-10-25T14:07:04.593Z,1010.23
2022-10-25T14:08:04.600Z,1010.25
2022-10-25T14:09:04.613Z,1010.24
2022-10-25T14:10:04.629Z,1010.28
2022-10-25T14:11:04.635Z,1010.24
2022-10-25T14:12:07.854Z,1010.25
2022-10-25T14:13:04.657Z,1010.29
2022-10-25T14:14:04.670Z,1010.26
2022-10-25T14:15:04.688Z,1010.26
2022-10-25T14:16:04.690Z,1010.32
2022-10-25T14:17:04.732Z,1010.37
2022-10-25T14:18:04.714Z,1010.37
2022-10-25T14:19:04.733Z,1010.43
2022-10-25T14:20:04.788Z,1010.40
2022-10-25T14:21:04.756Z,1010.39
2022-10-25T14:22:04.765Z,1010.40
2022-10-25T14:23:04.771Z,1010.37
2022-10-25T14:24:04.788Z,1010.37
2022-10-25T14:25:04.793Z,1010.38
2022-10-25T14:26:04.813Z,1010.39
2022-10-25T14:27:04.825Z,1010.38
2022-10-25T14:28:04.828Z,1010.41
2022-10-25T14:29:04.840Z,1010.43
2022-10-25T14:30:04.894Z,1010.43
2022-10-25T14:31:04.865Z,1010.45
2022-10-25T14:32:04.880Z,1010.41
2022-10-25T14:34:42.575Z,1010.38
2022-10-25T14:35:42.594Z,1010.42
2022-10-25T14:36:42.569Z,1010.38
2022-10-25T15:31:47.888Z,1010.62
2022-10-25T15:32:48.153Z,1010.60
2022-10-25T15:33:47.892Z,1010.65
2022-10-25T15:34:47.891Z,1010.64
2022-10-25T15:35:47.906Z,1010.64
2022-10-25T15:36:47.919Z,1010.65
2022-10-25T15:37:47.924Z,1010.67
2022-10-25T15:39:07.150Z,1010.63
2022-10-25T15:39:47.946Z,1010.68
2022-10-25T15:40:47.954Z,1010.69
2022-10-25T15:41:47.960Z,1010.68
2022-10-25T15:42:48.435Z,1010.67
2022-10-25T15:43:47.971Z,1010.66
2022-10-25T15:44:47.988Z,1010.70
2022-10-25T15:45:47.999Z,1010.71
2022-10-25T15:46:48.003Z,1010.73
2022-10-25T15:47:48.036Z,1010.74
2022-10-25T15:48:48.694Z,1010.71
2022-10-25T15:49:48.033Z,1010.74
2022-10-25T15:50:48.051Z,1010.74
2022-10-25T15:51:48.049Z,1010.73
2022-10-25T15:52:48.380Z,1010.75
2022-10-25T15:53:48.069Z,1010.75